Ainazi, Latvia

9:07 AM EEST on July 24, 2014 (GMT +0300)
Parnu (EEPU) Elev 46 ft | 58.42 °N, 24.47 °E | Change Station

Current weather conditions updated 17 minutes ago

Clear
Clear
73 °F
Feels Like 73 °F
N
2
Wind Variable Wind from Variable

Today is forecast to be nearly the same temperature as yesterday.

Today
High -- | Low -- °F
--% Chance of Precip.
Yesterday
High -- | Low -- °F
Precip. -- in
4:59 AM 9:56 PM
Waning Crescent, 7% visible
Pressure 30.15 in
Visibility -9999.0 miles
Clouds
Dew Point 61 °F
Humidity 65%
Rainfall 0.00 in
Snow Depth Not available.
UV Not available.
Pollen Not available.
Air Quality Not available.
Flu Activity Not available.
METAR EEPU 240550Z VRB02KT CAVOK 23/16 Q1021

More Conditions Fewer Conditions

Pressure 30.15 in
Visibility -9999.0 miles
Clouds
Dew Point 61 °F
Humidity 65%
Rainfall 0.00 in
Snow Depth Not available.
UV Not available.
Pollen Not available.
Air Quality Not available.
Flu Activity Not available.
METAR EEPU 240550Z VRB02KT CAVOK 23/16 Q1021

More Conditions Fewer Conditions

10-Day Weather Forecast

Almanac

Astronomy

Jul. 24, 2014 Rise Set
Actual Time 4:59 AM EEST 9:56 PM EEST
Civil Twilight 4:01 AM EEST 10:54 PM EEST
Nautical Twilight 1:55 AM EEST 12:51 AM EEST
Astronomical Twilight Sun does not rise Sun does not rise
Moon 2:58 AM EEST 7:50 PM EEST
Length of Visible Light 18h 52m
Length of Day
16h 56m
Tomorrow will be 3m 51s shorter.
Waning Crescent, 7% of the Moon is Illuminated
Today
Waning Crescent
Jul 26
New
Aug 3
First Quarter
Aug 10
Full
Aug 17
Last Quarter

Yesterday's Extremes

Country Highs Country Lows

Community

WunderPhotos

Upload Photos

1,736,939 photos uploaded!

Nearby

Snow Depth

Not available.

Earthquake Activity

City Distance Mag. Time & Date
No recent earthquake activity has been reported nearby.
Minimum magnitude displayed is 2.5.

Coastal Water Temperatures

Place Temperature
No Stations Reporting

Nearby Weather Stations

There are no personal weather stations in this area.